sensor_id;sensor_type;location;lat;lon;timestamp;P1;durP1;ratioP1;P2;durP2;ratioP2
24279;SDS011;12395;42.808;23.408;2023-06-22T00:00:09;9.73;;;6.30;;
24279;SDS011;12395;42.808;23.408;2023-06-22T00:02:39;9.88;;;6.82;;
24279;SDS011;12395;42.808;23.408;2023-06-22T00:05:07;10.88;;;6.85;;
24279;SDS011;12395;42.808;23.408;2023-06-22T00:07:33;11.63;;;7.60;;
24279;SDS011;12395;42.808;23.408;2023-06-22T00:09:58;11.13;;;7.60;;
24279;SDS011;12395;42.808;23.408;2023-06-22T00:12:26;10.60;;;7.57;;
24279;SDS011;12395;42.808;23.408;2023-06-22T00:14:53;10.52;;;7.20;;
24279;SDS011;12395;42.808;23.408;2023-06-22T00:17:22;11.90;;;7.47;;
24279;SDS011;12395;42.808;23.408;2023-06-22T00:19:47;11.32;;;7.45;;
24279;SDS011;12395;42.808;23.408;2023-06-22T00:22:18;10.52;;;6.90;;
24279;SDS011;12395;42.808;23.408;2023-06-22T00:24:46;12.80;;;6.93;;
24279;SDS011;12395;42.808;23.408;2023-06-22T00:27:19;10.75;;;6.85;;
24279;SDS011;12395;42.808;23.408;2023-06-22T00:32:14;10.93;;;7.10;;
24279;SDS011;12395;42.808;23.408;2023-06-22T00:34:42;13.27;;;7.32;;
24279;SDS011;12395;42.808;23.408;2023-06-22T00:37:07;11.88;;;7.63;;
24279;SDS011;12395;42.808;23.408;2023-06-22T00:39:37;11.57;;;7.72;;
24279;SDS011;12395;42.808;23.408;2023-06-22T00:42:06;12.13;;;7.93;;
24279;SDS011;12395;42.808;23.408;2023-06-22T00:44:41;10.90;;;7.70;;
24279;SDS011;12395;42.808;23.408;2023-06-22T00:47:22;12.88;;;8.27;;
24279;SDS011;12395;42.808;23.408;2023-06-22T00:49:58;12.07;;;7.85;;
24279;SDS011;12395;42.808;23.408;2023-06-22T00:52:35;13.60;;;8.68;;
24279;SDS011;12395;42.808;23.408;2023-06-22T00:55:03;11.57;;;8.10;;
24279;SDS011;12395;42.808;23.408;2023-06-22T00:57:29;14.82;;;7.78;;
24279;SDS011;12395;42.808;23.408;2023-06-22T00:59:55;14.40;;;8.23;;
24279;SDS011;12395;42.808;23.408;2023-06-22T01:02:34;13.77;;;8.63;;
24279;SDS011;12395;42.808;23.408;2023-06-22T01:05:14;12.90;;;8.18;;
24279;SDS011;12395;42.808;23.408;2023-06-22T01:07:43;13.23;;;8.63;;
24279;SDS011;12395;42.808;23.408;2023-06-22T01:10:32;12.63;;;8.65;;
24279;SDS011;12395;42.808;23.408;2023-06-22T01:13:01;12.75;;;8.30;;
24279;SDS011;12395;42.808;23.408;2023-06-22T01:15:55;11.52;;;8.18;;
24279;SDS011;12395;42.808;23.408;2023-06-22T01:20:55;12.82;;;8.48;;
24279;SDS011;12395;42.808;23.408;2023-06-22T01:23:37;13.75;;;8.35;;
24279;SDS011;12395;42.808;23.408;2023-06-22T01:28:55;12.23;;;7.93;;
24279;SDS011;12395;42.808;23.408;2023-06-22T01:31:24;11.75;;;8.05;;
24279;SDS011;12395;42.808;23.408;2023-06-22T01:34:00;11.68;;;7.97;;
24279;SDS011;12395;42.808;23.408;2023-06-22T01:36:30;11.45;;;7.72;;
24279;SDS011;12395;42.808;23.408;2023-06-22T01:39:04;11.32;;;7.78;;
24279;SDS011;12395;42.808;23.408;2023-06-22T01:41:38;13.00;;;8.60;;
24279;SDS011;12395;42.808;23.408;2023-06-22T01:44:07;11.60;;;8.13;;
24279;SDS011;12395;42.808;23.408;2023-06-22T01:46:36;12.30;;;8.27;;
24279;SDS011;12395;42.808;23.408;2023-06-22T01:49:11;13.25;;;8.55;;
24279;SDS011;12395;42.808;23.408;2023-06-22T01:52:01;12.18;;;8.27;;
24279;SDS011;12395;42.808;23.408;2023-06-22T01:54:32;11.55;;;8.25;;
24279;SDS011;12395;42.808;23.408;2023-06-22T01:56:58;12.05;;;7.72;;
24279;SDS011;12395;42.808;23.408;2023-06-22T01:59:31;12.50;;;8.15;;
24279;SDS011;12395;42.808;23.408;2023-06-22T02:02:06;12.45;;;7.57;;
24279;SDS011;12395;42.808;23.408;2023-06-22T02:04:56;12.60;;;7.88;;
24279;SDS011;12395;42.808;23.408;2023-06-22T02:07:28;11.90;;;7.68;;
24279;SDS011;12395;42.808;23.408;2023-06-22T02:10:02;11.88;;;7.60;;
24279;SDS011;12395;42.808;23.408;2023-06-22T02:12:32;11.35;;;7.57;;
24279;SDS011;12395;42.808;23.408;2023-06-22T02:15:09;12.40;;;8.45;;
24279;SDS011;12395;42.808;23.408;2023-06-22T02:17:42;14.98;;;8.27;;
24279;SDS011;12395;42.808;23.408;2023-06-22T02:20:23;11.32;;;7.75;;
24279;SDS011;12395;42.808;23.408;2023-06-22T02:22:51;11.00;;;7.70;;
24279;SDS011;12395;42.808;23.408;2023-06-22T02:25:19;11.40;;;7.63;;
24279;SDS011;12395;42.808;23.408;2023-06-22T02:27:45;13.50;;;7.75;;
24279;SDS011;12395;42.808;23.408;2023-06-22T02:30:31;12.43;;;7.72;;
24279;SDS011;12395;42.808;23.408;2023-06-22T02:32:59;11.68;;;8.20;;
24279;SDS011;12395;42.808;23.408;2023-06-22T02:35:38;14.43;;;9.10;;
24279;SDS011;12395;42.808;23.408;2023-06-22T02:38:14;15.05;;;8.65;;
24279;SDS011;12395;42.808;23.408;2023-06-22T02:40:45;12.95;;;8.68;;
24279;SDS011;12395;42.808;23.408;2023-06-22T02:43:13;12.85;;;8.30;;
24279;SDS011;12395;42.808;23.408;2023-06-22T02:45:49;14.13;;;8.95;;
24279;SDS011;12395;42.808;23.408;2023-06-22T02:48:24;13.30;;;8.40;;
24279;SDS011;12395;42.808;23.408;2023-06-22T02:50:58;15.77;;;9.07;;
24279;SDS011;12395;42.808;23.408;2023-06-22T02:53:24;15.00;;;8.60;;
24279;SDS011;12395;42.808;23.408;2023-06-22T02:55:49;13.30;;;8.13;;
24279;SDS011;12395;42.808;23.408;2023-06-22T02:58:20;12.57;;;8.25;;
24279;SDS011;12395;42.808;23.408;2023-06-22T03:01:08;11.35;;;8.05;;
24279;SDS011;12395;42.808;23.408;2023-06-22T03:03:48;12.30;;;8.02;;
24279;SDS011;12395;42.808;23.408;2023-06-22T03:06:14;12.02;;;8.38;;
24279;SDS011;12395;42.808;23.408;2023-06-22T03:08:49;12.15;;;8.10;;
24279;SDS011;12395;42.808;23.408;2023-06-22T03:13:46;11.88;;;8.10;;
24279;SDS011;12395;42.808;23.408;2023-06-22T03:16:16;13.27;;;8.07;;
24279;SDS011;12395;42.808;23.408;2023-06-22T03:18:51;12.00;;;7.50;;
24279;SDS011;12395;42.808;23.408;2023-06-22T03:21:22;11.80;;;7.63;;
24279;SDS011;12395;42.808;23.408;2023-06-22T03:23:54;11.18;;;7.53;;
24279;SDS011;12395;42.808;23.408;2023-06-22T03:26:21;13.60;;;7.72;;
24279;SDS011;12395;42.808;23.408;2023-06-22T03:28:57;11.68;;;8.15;;
24279;SDS011;12395;42.808;23.408;2023-06-22T03:31:33;12.25;;;7.90;;
24279;SDS011;12395;42.808;23.408;2023-06-22T03:34:06;12.60;;;8.15;;
24279;SDS011;12395;42.808;23.408;2023-06-22T03:36:38;11.93;;;7.93;;
24279;SDS011;12395;42.808;23.408;2023-06-22T03:42:15;12.15;;;8.23;;
24279;SDS011;12395;42.808;23.408;2023-06-22T03:45:08;13.02;;;8.18;;
24279;SDS011;12395;42.808;23.408;2023-06-22T03:47:34;11.35;;;7.63;;
24279;SDS011;12395;42.808;23.408;2023-06-22T03:50:00;11.50;;;8.05;;
24279;SDS011;12395;42.808;23.408;2023-06-22T03:52:41;11.90;;;8.13;;
24279;SDS011;12395;42.808;23.408;2023-06-22T03:55:24;11.75;;;8.13;;
24279;SDS011;12395;42.808;23.408;2023-06-22T03:57:52;11.85;;;8.00;;
24279;SDS011;12395;42.808;23.408;2023-06-22T04:00:27;11.80;;;8.20;;
24279;SDS011;12395;42.808;23.408;2023-06-22T04:02:52;13.57;;;8.38;;
24279;SDS011;12395;42.808;23.408;2023-06-22T04:05:32;11.85;;;7.95;;
24279;SDS011;12395;42.808;23.408;2023-06-22T04:08:04;11.35;;;8.02;;
24279;SDS011;12395;42.808;23.408;2023-06-22T04:10:49;12.83;;;8.20;;
24279;SDS011;12395;42.808;23.408;2023-06-22T04:13:14;14.68;;;9.32;;
24279;SDS011;12395;42.808;23.408;2023-06-22T04:15:52;12.93;;;8.75;;
24279;SDS011;12395;42.808;23.408;2023-06-22T04:18:33;11.73;;;7.90;;
24279;SDS011;12395;42.808;23.408;2023-06-22T04:21:06;10.45;;;7.63;;
24279;SDS011;12395;42.808;23.408;2023-06-22T04:23:57;12.60;;;7.93;;
24279;SDS011;12395;42.808;23.408;2023-06-22T04:26:25;10.73;;;7.38;;
24279;SDS011;12395;42.808;23.408;2023-06-22T04:28:50;10.43;;;7.22;;
24279;SDS011;12395;42.808;23.408;2023-06-22T04:31:19;11.13;;;7.22;;
24279;SDS011;12395;42.808;23.408;2023-06-22T04:33:45;11.45;;;8.18;;
24279;SDS011;12395;42.808;23.408;2023-06-22T04:36:10;11.95;;;7.53;;
24279;SDS011;12395;42.808;23.408;2023-06-22T04:38:38;11.45;;;7.88;;
24279;SDS011;12395;42.808;23.408;2023-06-22T04:41:04;11.40;;;8.00;;
24279;SDS011;12395;42.808;23.408;2023-06-22T04:43:29;10.52;;;7.68;;
24279;SDS011;12395;42.808;23.408;2023-06-22T04:45:55;10.07;;;7.75;;
24279;SDS011;12395;42.808;23.408;2023-06-22T04:48:21;9.40;;;7.55;;
24279;SDS011;12395;42.808;23.408;2023-06-22T04:50:47;11.45;;;8.18;;
24279;SDS011;12395;42.808;23.408;2023-06-22T04:53:12;11.77;;;9.13;;
24279;SDS011;12395;42.808;23.408;2023-06-22T04:55:38;14.65;;;9.57;;
24279;SDS011;12395;42.808;23.408;2023-06-22T04:58:06;16.33;;;10.35;;
24279;SDS011;12395;42.808;23.408;2023-06-22T05:00:32;13.45;;;10.32;;
24279;SDS011;12395;42.808;23.408;2023-06-22T05:03:01;17.58;;;10.98;;
24279;SDS011;12395;42.808;23.408;2023-06-22T05:05:28;18.90;;;11.00;;
24279;SDS011;12395;42.808;23.408;2023-06-22T05:07:56;15.73;;;10.68;;
24279;SDS011;12395;42.808;23.408;2023-06-22T05:10:24;14.38;;;10.77;;
24279;SDS011;12395;42.808;23.408;2023-06-22T05:12:50;16.45;;;10.57;;
24279;SDS011;12395;42.808;23.408;2023-06-22T05:15:16;16.50;;;11.10;;
24279;SDS011;12395;42.808;23.408;2023-06-22T05:17:44;14.23;;;10.70;;
24279;SDS011;12395;42.808;23.408;2023-06-22T05:20:12;14.02;;;10.45;;
24279;SDS011;12395;42.808;23.408;2023-06-22T05:22:38;15.02;;;11.00;;
24279;SDS011;12395;42.808;23.408;2023-06-22T05:25:08;16.75;;;11.70;;
24279;SDS011;12395;42.808;23.408;2023-06-22T05:27:35;14.20;;;11.20;;
24279;SDS011;12395;42.808;23.408;2023-06-22T05:30:04;16.88;;;11.07;;
24279;SDS011;12395;42.808;23.408;2023-06-22T05:34:57;15.85;;;11.10;;
24279;SDS011;12395;42.808;23.408;2023-06-22T05:37:22;14.65;;;10.63;;
24279;SDS011;12395;42.808;23.408;2023-06-22T05:39:48;17.17;;;11.05;;
24279;SDS011;12395;42.808;23.408;2023-06-22T05:42:13;15.27;;;10.80;;
24279;SDS011;12395;42.808;23.408;2023-06-22T05:44:38;14.90;;;10.68;;
24279;SDS011;12395;42.808;23.408;2023-06-22T05:47:05;17.48;;;10.68;;
24279;SDS011;12395;42.808;23.408;2023-06-22T05:49:32;15.90;;;10.95;;
24279;SDS011;12395;42.808;23.408;2023-06-22T05:51:58;16.35;;;10.80;;
24279;SDS011;12395;42.808;23.408;2023-06-22T05:54:24;14.20;;;10.18;;
24279;SDS011;12395;42.808;23.408;2023-06-22T05:56:50;16.63;;;10.65;;
24279;SDS011;12395;42.808;23.408;2023-06-22T05:59:16;14.32;;;10.73;;
24279;SDS011;12395;42.808;23.408;2023-06-22T06:01:41;15.38;;;10.93;;
24279;SDS011;12395;42.808;23.408;2023-06-22T06:04:06;16.95;;;11.40;;
24279;SDS011;12395;42.808;23.408;2023-06-22T06:06:33;15.77;;;11.82;;
24279;SDS011;12395;42.808;23.408;2023-06-22T06:08:59;15.18;;;10.98;;
24279;SDS011;12395;42.808;23.408;2023-06-22T06:11:25;17.60;;;12.13;;
24279;SDS011;12395;42.808;23.408;2023-06-22T06:13:51;20.27;;;12.15;;
24279;SDS011;12395;42.808;23.408;2023-06-22T06:16:16;16.48;;;11.60;;
24279;SDS011;12395;42.808;23.408;2023-06-22T06:18:41;15.27;;;11.38;;
24279;SDS011;12395;42.808;23.408;2023-06-22T06:21:07;18.27;;;11.52;;
24279;SDS011;12395;42.808;23.408;2023-06-22T06:23:32;15.35;;;12.05;;
24279;SDS011;12395;42.808;23.408;2023-06-22T06:25:58;17.55;;;12.13;;
24279;SDS011;12395;42.808;23.408;2023-06-22T06:28:24;15.93;;;11.73;;
24279;SDS011;12395;42.808;23.408;2023-06-22T06:30:50;18.13;;;10.75;;
24279;SDS011;12395;42.808;23.408;2023-06-22T06:33:16;15.63;;;11.52;;
24279;SDS011;12395;42.808;23.408;2023-06-22T06:35:42;16.48;;;11.45;;
24279;SDS011;12395;42.808;23.408;2023-06-22T06:38:07;15.95;;;11.00;;
24279;SDS011;12395;42.808;23.408;2023-06-22T06:40:33;15.05;;;11.20;;
24279;SDS011;12395;42.808;23.408;2023-06-22T06:42:58;14.23;;;10.02;;
24279;SDS011;12395;42.808;23.408;2023-06-22T06:45:25;14.10;;;10.35;;
24279;SDS011;12395;42.808;23.408;2023-06-22T06:47:52;12.82;;;10.30;;
24279;SDS011;12395;42.808;23.408;2023-06-22T06:50:18;13.73;;;9.65;;
24279;SDS011;12395;42.808;23.408;2023-06-22T06:52:43;14.50;;;10.10;;
24279;SDS011;12395;42.808;23.408;2023-06-22T06:55:09;13.18;;;10.23;;
24279;SDS011;12395;42.808;23.408;2023-06-22T06:57:37;12.38;;;9.40;;
24279;SDS011;12395;42.808;23.408;2023-06-22T07:00:06;13.93;;;9.88;;
24279;SDS011;12395;42.808;23.408;2023-06-22T07:02:37;12.30;;;9.50;;
24279;SDS011;12395;42.808;23.408;2023-06-22T07:05:04;12.70;;;9.55;;
24279;SDS011;12395;42.808;23.408;2023-06-22T07:07:30;12.50;;;9.30;;
24279;SDS011;12395;42.808;23.408;2023-06-22T07:09:55;12.45;;;9.70;;
24279;SDS011;12395;42.808;23.408;2023-06-22T07:12:21;13.85;;;9.20;;
24279;SDS011;12395;42.808;23.408;2023-06-22T07:14:46;12.48;;;9.38;;
24279;SDS011;12395;42.808;23.408;2023-06-22T07:17:12;16.00;;;10.40;;
24279;SDS011;12395;42.808;23.408;2023-06-22T07:19:37;14.23;;;9.40;;
24279;SDS011;12395;42.808;23.408;2023-06-22T07:22:03;12.05;;;9.35;;
24279;SDS011;12395;42.808;23.408;2023-06-22T07:24:28;12.63;;;9.60;;
24279;SDS011;12395;42.808;23.408;2023-06-22T07:26:54;12.77;;;9.48;;
24279;SDS011;12395;42.808;23.408;2023-06-22T07:29:20;13.80;;;9.48;;
24279;SDS011;12395;42.808;23.408;2023-06-22T07:31:46;12.80;;;9.23;;
24279;SDS011;12395;42.808;23.408;2023-06-22T07:34:12;13.52;;;10.02;;
24279;SDS011;12395;42.808;23.408;2023-06-22T07:36:37;17.13;;;10.10;;
24279;SDS011;12395;42.808;23.408;2023-06-22T07:39:03;14.57;;;10.25;;
24279;SDS011;12395;42.808;23.408;2023-06-22T07:41:29;13.88;;;9.45;;
24279;SDS011;12395;42.808;23.408;2023-06-22T07:43:55;13.50;;;9.70;;
24279;SDS011;12395;42.808;23.408;2023-06-22T07:46:20;12.85;;;9.50;;
24279;SDS011;12395;42.808;23.408;2023-06-22T07:48:45;15.48;;;10.10;;
24279;SDS011;12395;42.808;23.408;2023-06-22T07:51:11;14.27;;;9.00;;
24279;SDS011;12395;42.808;23.408;2023-06-22T07:53:43;12.52;;;9.20;;
24279;SDS011;12395;42.808;23.408;2023-06-22T07:56:12;12.45;;;9.52;;
24279;SDS011;12395;42.808;23.408;2023-06-22T07:58:38;12.00;;;8.82;;
24279;SDS011;12395;42.808;23.408;2023-06-22T08:01:03;13.55;;;9.25;;
24279;SDS011;12395;42.808;23.408;2023-06-22T08:03:29;13.23;;;9.00;;
24279;SDS011;12395;42.808;23.408;2023-06-22T08:05:55;11.75;;;9.00;;
24279;SDS011;12395;42.808;23.408;2023-06-22T08:08:21;12.93;;;9.07;;
24279;SDS011;12395;42.808;23.408;2023-06-22T08:10:46;12.30;;;9.23;;
24279;SDS011;12395;42.808;23.408;2023-06-22T08:13:11;12.63;;;8.93;;
24279;SDS011;12395;42.808;23.408;2023-06-22T08:15:37;11.70;;;8.77;;
24279;SDS011;12395;42.808;23.408;2023-06-22T08:18:02;12.02;;;8.80;;
24279;SDS011;12395;42.808;23.408;2023-06-22T08:20:28;12.20;;;8.38;;
24279;SDS011;12395;42.808;23.408;2023-06-22T08:22:54;12.13;;;8.18;;
24279;SDS011;12395;42.808;23.408;2023-06-22T08:25:20;11.98;;;8.30;;
24279;SDS011;12395;42.808;23.408;2023-06-22T08:27:46;11.88;;;8.85;;
24279;SDS011;12395;42.808;23.408;2023-06-22T08:30:13;10.90;;;8.63;;
24279;SDS011;12395;42.808;23.408;2023-06-22T08:32:39;10.80;;;8.40;;
24279;SDS011;12395;42.808;23.408;2023-06-22T08:35:04;11.40;;;8.80;;
24279;SDS011;12395;42.808;23.408;2023-06-22T08:37:33;10.77;;;8.52;;
24279;SDS011;12395;42.808;23.408;2023-06-22T08:42:39;11.07;;;8.65;;
24279;SDS011;12395;42.808;23.408;2023-06-22T08:45:05;13.77;;;8.93;;
24279;SDS011;12395;42.808;23.408;2023-06-22T08:47:31;13.68;;;9.30;;
24279;SDS011;12395;42.808;23.408;2023-06-22T08:49:57;14.23;;;9.38;;
24279;SDS011;12395;42.808;23.408;2023-06-22T08:52:24;15.50;;;9.55;;
24279;SDS011;12395;42.808;23.408;2023-06-22T08:57:15;12.88;;;8.80;;
24279;SDS011;12395;42.808;23.408;2023-06-22T08:59:41;13.20;;;9.15;;
24279;SDS011;12395;42.808;23.408;2023-06-22T09:02:07;11.60;;;8.85;;
24279;SDS011;12395;42.808;23.408;2023-06-22T09:04:33;12.50;;;8.95;;
24279;SDS011;12395;42.808;23.408;2023-06-22T09:07:00;13.38;;;9.15;;
24279;SDS011;12395;42.808;23.408;2023-06-22T09:09:25;13.52;;;9.30;;
24279;SDS011;12395;42.808;23.408;2023-06-22T09:11:52;11.50;;;8.88;;
24279;SDS011;12395;42.808;23.408;2023-06-22T09:14:17;12.88;;;9.15;;
24279;SDS011;12395;42.808;23.408;2023-06-22T09:16:43;13.07;;;9.93;;
24279;SDS011;12395;42.808;23.408;2023-06-22T09:19:09;12.40;;;9.35;;
24279;SDS011;12395;42.808;23.408;2023-06-22T09:21:34;11.98;;;9.20;;
24279;SDS011;12395;42.808;23.408;2023-06-22T09:24:00;11.68;;;9.07;;
24279;SDS011;12395;42.808;23.408;2023-06-22T09:26:25;11.55;;;9.27;;
24279;SDS011;12395;42.808;23.408;2023-06-22T09:28:51;12.45;;;9.13;;
24279;SDS011;12395;42.808;23.408;2023-06-22T09:31:16;11.48;;;8.85;;
24279;SDS011;12395;42.808;23.408;2023-06-22T09:33:42;12.60;;;8.45;;
24279;SDS011;12395;42.808;23.408;2023-06-22T09:36:09;11.27;;;8.90;;
24279;SDS011;12395;42.808;23.408;2023-06-22T09:38:36;13.48;;;9.30;;
24279;SDS011;12395;42.808;23.408;2023-06-22T09:41:02;13.10;;;9.27;;
24279;SDS011;12395;42.808;23.408;2023-06-22T09:43:28;12.48;;;9.65;;
24279;SDS011;12395;42.808;23.408;2023-06-22T09:45:53;11.40;;;9.10;;
24279;SDS011;12395;42.808;23.408;2023-06-22T09:48:19;11.02;;;8.13;;
24279;SDS011;12395;42.808;23.408;2023-06-22T09:50:44;14.73;;;9.27;;
24279;SDS011;12395;42.808;23.408;2023-06-22T09:53:10;12.13;;;8.50;;
24279;SDS011;12395;42.808;23.408;2023-06-22T09:55:35;11.20;;;8.60;;
24279;SDS011;12395;42.808;23.408;2023-06-22T09:58:00;11.55;;;8.77;;
24279;SDS011;12395;42.808;23.408;2023-06-22T10:00:26;13.00;;;8.52;;
24279;SDS011;12395;42.808;23.408;2023-06-22T10:02:51;13.23;;;8.77;;
24279;SDS011;12395;42.808;23.408;2023-06-22T10:05:17;11.57;;;8.48;;
24279;SDS011;12395;42.808;23.408;2023-06-22T10:07:42;11.50;;;7.93;;
24279;SDS011;12395;42.808;23.408;2023-06-22T10:10:09;11.35;;;8.10;;
24279;SDS011;12395;42.808;23.408;2023-06-22T10:12:35;10.65;;;8.38;;
24279;SDS011;12395;42.808;23.408;2023-06-22T10:15:01;11.45;;;7.90;;
24279;SDS011;12395;42.808;23.408;2023-06-22T10:17:26;11.30;;;8.40;;
24279;SDS011;12395;42.808;23.408;2023-06-22T10:19:51;10.40;;;8.23;;
24279;SDS011;12395;42.808;23.408;2023-06-22T10:22:17;10.32;;;7.90;;
24279;SDS011;12395;42.808;23.408;2023-06-22T10:24:42;11.00;;;8.40;;
24279;SDS011;12395;42.808;23.408;2023-06-22T10:27:12;10.30;;;8.30;;
24279;SDS011;12395;42.808;23.408;2023-06-22T10:29:38;11.35;;;8.40;;
24279;SDS011;12395;42.808;23.408;2023-06-22T10:32:04;10.15;;;8.02;;
24279;SDS011;12395;42.808;23.408;2023-06-22T10:34:33;11.35;;;8.48;;
24279;SDS011;12395;42.808;23.408;2023-06-22T10:36:59;11.20;;;8.70;;
24279;SDS011;12395;42.808;23.408;2023-06-22T10:39:24;10.48;;;7.90;;
24279;SDS011;12395;42.808;23.408;2023-06-22T10:41:50;10.57;;;8.63;;
24279;SDS011;12395;42.808;23.408;2023-06-22T10:44:15;12.23;;;8.20;;
24279;SDS011;12395;42.808;23.408;2023-06-22T10:46:42;9.63;;;7.78;;
24279;SDS011;12395;42.808;23.408;2023-06-22T10:49:08;10.57;;;8.27;;
24279;SDS011;12395;42.808;23.408;2023-06-22T10:51:33;10.80;;;8.15;;
24279;SDS011;12395;42.808;23.408;2023-06-22T10:53:58;10.50;;;7.93;;
24279;SDS011;12395;42.808;23.408;2023-06-22T10:56:24;10.15;;;8.00;;
24279;SDS011;12395;42.808;23.408;2023-06-22T10:58:49;9.60;;;7.88;;
24279;SDS011;12395;42.808;23.408;2023-06-22T11:01:15;10.45;;;7.95;;
24279;SDS011;12395;42.808;23.408;2023-06-22T11:03:40;9.48;;;8.15;;
24279;SDS011;12395;42.808;23.408;2023-06-22T11:06:05;11.15;;;7.85;;
24279;SDS011;12395;42.808;23.408;2023-06-22T11:08:31;10.13;;;7.97;;
24279;SDS011;12395;42.808;23.408;2023-06-22T11:10:56;11.43;;;8.15;;
24279;SDS011;12395;42.808;23.408;2023-06-22T11:13:21;10.35;;;8.20;;
24279;SDS011;12395;42.808;23.408;2023-06-22T11:15:47;10.40;;;8.23;;
24279;SDS011;12395;42.808;23.408;2023-06-22T11:18:12;10.13;;;8.23;;
24279;SDS011;12395;42.808;23.408;2023-06-22T11:20:38;11.23;;;7.80;;
24279;SDS011;12395;42.808;23.408;2023-06-22T11:23:06;10.60;;;7.75;;
24279;SDS011;12395;42.808;23.408;2023-06-22T11:25:32;11.82;;;8.20;;
24279;SDS011;12395;42.808;23.408;2023-06-22T11:28:03;9.82;;;7.78;;
24279;SDS011;12395;42.808;23.408;2023-06-22T11:30:28;10.60;;;7.65;;
24279;SDS011;12395;42.808;23.408;2023-06-22T11:32:54;9.87;;;7.60;;
24279;SDS011;12395;42.808;23.408;2023-06-22T11:37:46;9.73;;;7.72;;
24279;SDS011;12395;42.808;23.408;2023-06-22T11:40:12;10.47;;;7.90;;
24279;SDS011;12395;42.808;23.408;2023-06-22T11:42:37;11.10;;;8.10;;
24279;SDS011;12395;42.808;23.408;2023-06-22T11:45:04;10.57;;;7.83;;
24279;SDS011;12395;42.808;23.408;2023-06-22T11:47:30;11.63;;;8.43;;
24279;SDS011;12395;42.808;23.408;2023-06-22T11:49:55;9.47;;;7.87;;
24279;SDS011;12395;42.808;23.408;2023-06-22T11:52:23;10.75;;;8.20;;
24279;SDS011;12395;42.808;23.408;2023-06-22T11:54:48;13.10;;;8.23;;
24279;SDS011;12395;42.808;23.408;2023-06-22T11:57:13;9.70;;;8.05;;
24279;SDS011;12395;42.808;23.408;2023-06-22T11:59:39;10.60;;;8.20;;
24279;SDS011;12395;42.808;23.408;2023-06-22T12:02:04;9.83;;;8.00;;
24279;SDS011;12395;42.808;23.408;2023-06-22T12:04:33;11.60;;;8.35;;
24279;SDS011;12395;42.808;23.408;2023-06-22T12:07:03;11.40;;;7.75;;
24279;SDS011;12395;42.808;23.408;2023-06-22T12:09:29;10.30;;;8.03;;
24279;SDS011;12395;42.808;23.408;2023-06-22T12:11:55;10.67;;;7.60;;
24279;SDS011;12395;42.808;23.408;2023-06-22T12:14:21;10.98;;;7.80;;
24279;SDS011;12395;42.808;23.408;2023-06-22T12:16:49;9.63;;;7.97;;
24279;SDS011;12395;42.808;23.408;2023-06-22T12:19:17;10.68;;;7.95;;
24279;SDS011;12395;42.808;23.408;2023-06-22T12:21:44;10.15;;;8.23;;
24279;SDS011;12395;42.808;23.408;2023-06-22T12:24:11;10.95;;;7.68;;
24279;SDS011;12395;42.808;23.408;2023-06-22T12:26:36;9.82;;;7.50;;
24279;SDS011;12395;42.808;23.408;2023-06-22T12:29:02;9.93;;;7.43;;
24279;SDS011;12395;42.808;23.408;2023-06-22T12:31:27;8.48;;;7.03;;
24279;SDS011;12395;42.808;23.408;2023-06-22T12:33:53;10.60;;;7.05;;
24279;SDS011;12395;42.808;23.408;2023-06-22T12:36:18;9.10;;;7.35;;
24279;SDS011;12395;42.808;23.408;2023-06-22T12:38:43;8.70;;;6.72;;
24279;SDS011;12395;42.808;23.408;2023-06-22T12:41:09;8.70;;;6.70;;
24279;SDS011;12395;42.808;23.408;2023-06-22T12:43:34;10.77;;;7.15;;
24279;SDS011;12395;42.808;23.408;2023-06-22T12:45:59;10.52;;;7.43;;
24279;SDS011;12395;42.808;23.408;2023-06-22T12:48:26;10.77;;;6.93;;
24279;SDS011;12395;42.808;23.408;2023-06-22T12:50:52;11.15;;;6.80;;
24279;SDS011;12395;42.808;23.408;2023-06-22T12:53:18;11.77;;;6.82;;
24279;SDS011;12395;42.808;23.408;2023-06-22T12:55:43;11.10;;;6.63;;
24279;SDS011;12395;42.808;23.408;2023-06-22T12:58:09;11.40;;;7.45;;
24279;SDS011;12395;42.808;23.408;2023-06-22T13:00:34;10.18;;;6.68;;
24279;SDS011;12395;42.808;23.408;2023-06-22T13:03:00;10.48;;;7.10;;
24279;SDS011;12395;42.808;23.408;2023-06-22T13:05:25;8.07;;;6.10;;
24279;SDS011;12395;42.808;23.408;2023-06-22T13:07:50;11.07;;;6.50;;
24279;SDS011;12395;42.808;23.408;2023-06-22T13:10:16;11.27;;;6.68;;
24279;SDS011;12395;42.808;23.408;2023-06-22T13:12:41;10.07;;;6.10;;
24279;SDS011;12395;42.808;23.408;2023-06-22T13:15:07;8.60;;;6.40;;
24279;SDS011;12395;42.808;23.408;2023-06-22T13:17:32;9.90;;;5.80;;
24279;SDS011;12395;42.808;23.408;2023-06-22T13:19:58;9.02;;;5.82;;
24279;SDS011;12395;42.808;23.408;2023-06-22T13:22:30;9.70;;;6.00;;
24279;SDS011;12395;42.808;23.408;2023-06-22T13:24:57;12.95;;;5.88;;
24279;SDS011;12395;42.808;23.408;2023-06-22T13:27:23;8.43;;;5.90;;
24279;SDS011;12395;42.808;23.408;2023-06-22T13:29:49;9.90;;;5.95;;
24279;SDS011;12395;42.808;23.408;2023-06-22T13:32:15;11.07;;;5.60;;
24279;SDS011;12395;42.808;23.408;2023-06-22T13:34:40;8.10;;;5.50;;
24279;SDS011;12395;42.808;23.408;2023-06-22T13:37:07;8.82;;;5.82;;
24279;SDS011;12395;42.808;23.408;2023-06-22T13:39:32;8.70;;;5.78;;
24279;SDS011;12395;42.808;23.408;2023-06-22T13:41:58;8.93;;;5.90;;
24279;SDS011;12395;42.808;23.408;2023-06-22T13:44:23;10.85;;;6.30;;
24279;SDS011;12395;42.808;23.408;2023-06-22T13:46:52;10.07;;;5.78;;
24279;SDS011;12395;42.808;23.408;2023-06-22T13:49:18;9.60;;;6.10;;
24279;SDS011;12395;42.808;23.408;2023-06-22T13:51:43;8.32;;;5.90;;
24279;SDS011;12395;42.808;23.408;2023-06-22T13:54:08;10.00;;;6.22;;
24279;SDS011;12395;42.808;23.408;2023-06-22T13:56:34;10.05;;;6.07;;
24279;SDS011;12395;42.808;23.408;2023-06-22T13:58:59;9.60;;;5.88;;
24279;SDS011;12395;42.808;23.408;2023-06-22T14:01:25;13.23;;;6.28;;
24279;SDS011;12395;42.808;23.408;2023-06-22T14:03:50;9.43;;;6.10;;
24279;SDS011;12395;42.808;23.408;2023-06-22T14:06:16;10.20;;;6.35;;
24279;SDS011;12395;42.808;23.408;2023-06-22T14:08:41;8.48;;;5.65;;
24279;SDS011;12395;42.808;23.408;2023-06-22T14:11:07;8.48;;;5.97;;
24279;SDS011;12395;42.808;23.408;2023-06-22T14:13:32;9.90;;;5.97;;
24279;SDS011;12395;42.808;23.408;2023-06-22T14:15:57;10.05;;;6.25;;
24279;SDS011;12395;42.808;23.408;2023-06-22T14:18:23;11.63;;;6.35;;
24279;SDS011;12395;42.808;23.408;2023-06-22T14:20:48;8.60;;;6.03;;
24279;SDS011;12395;42.808;23.408;2023-06-22T14:23:14;10.82;;;5.97;;
24279;SDS011;12395;42.808;23.408;2023-06-22T14:25:40;8.73;;;6.32;;
24279;SDS011;12395;42.808;23.408;2023-06-22T14:28:05;10.13;;;6.25;;
24279;SDS011;12395;42.808;23.408;2023-06-22T14:30:31;9.13;;;6.32;;
24279;SDS011;12395;42.808;23.408;2023-06-22T14:32:56;8.55;;;6.10;;
24279;SDS011;12395;42.808;23.408;2023-06-22T14:35:22;10.48;;;5.95;;
24279;SDS011;12395;42.808;23.408;2023-06-22T14:40:14;8.82;;;5.47;;
24279;SDS011;12395;42.808;23.408;2023-06-22T14:42:40;9.23;;;6.07;;
24279;SDS011;12395;42.808;23.408;2023-06-22T14:45:05;9.95;;;6.28;;
24279;SDS011;12395;42.808;23.408;2023-06-22T14:47:31;9.77;;;5.75;;
24279;SDS011;12395;42.808;23.408;2023-06-22T14:49:56;9.13;;;6.15;;